Time;durP1;ratioP1;P1;durP2;ratioP2;P2;SDS_P1;SDS_P2;PMS_P1;PMS_P2;Temp;Humidity;BMP_temperature;BMP_pressure;BME280_temperature;BME280_humidity;BME280_pressure;Samples;Min_cycle;Max_cycle;Signal;HPM_P1;HPM_P2
2022/12/03 00:02:16;;;;;;;53.90;31.98;;;0.20;1.00;;;;;;6220879;23;20211;-82
2022/12/03 00:04:45;;;;;;;52.17;32.13;;;0.20;1.00;;;;;;6228525;22;20222;-85
2022/12/03 00:07:14;;;;;;;52.70;31.60;;;0.20;1.00;;;;;;6229912;23;20292;-84
2022/12/03 00:09:42;;;;;;;49.65;31.15;;;0.20;1.00;;;;;;6231624;23;20226;-84
2022/12/03 00:12:10;;;;;;;46.58;28.67;;;0.20;1.00;;;;;;6228910;23;20303;-85
2022/12/03 00:14:37;;;;;;;46.95;30.00;;;0.10;1.00;;;;;;6231100;23;20209;-85
2022/12/03 00:17:04;;;;;;;50.42;30.95;;;0.10;1.00;;;;;;6229286;23;20208;-84
2022/12/03 00:19:32;;;;;;;54.70;30.60;;;0.10;1.00;;;;;;6231228;23;20205;-83
2022/12/03 00:21:59;;;;;;;50.08;31.52;;;0.00;1.00;;;;;;6229300;23;20219;-84
2022/12/03 00:24:26;;;;;;;52.95;33.30;;;0.00;1.00;;;;;;6232810;23;20218;-85
2022/12/03 00:26:55;;;;;;;46.95;30.73;;;0.00;1.00;;;;;;6229739;22;20208;-82
2022/12/03 00:29:24;;;;;;;52.40;33.20;;;0.00;1.00;;;;;;6229598;23;20220;-85
2022/12/03 00:31:51;;;;;;;50.40;30.80;;;0.10;1.00;;;;;;6228032;23;20214;-83
2022/12/03 00:34:18;;;;;;;50.28;30.98;;;0.00;1.00;;;;;;6230895;23;20216;-86
2022/12/03 00:36:45;;;;;;;48.78;29.73;;;0.00;1.00;;;;;;6231745;23;20228;-84
2022/12/03 00:39:12;;;;;;;49.28;33.00;;;0.00;1.00;;;;;;6234845;23;20230;-84
2022/12/03 00:41:39;;;;;;;45.03;30.40;;;0.00;1.00;;;;;;6234734;23;20214;-83
2022/12/03 00:44:09;;;;;;;52.45;30.25;;;0.10;1.00;;;;;;6229430;23;20971;-85
2022/12/03 00:46:36;;;;;;;51.85;33.17;;;0.20;1.00;;;;;;6229734;23;20239;-84
2022/12/03 00:49:04;;;;;;;53.55;32.65;;;0.20;1.00;;;;;;6233609;23;20248;-83
2022/12/03 00:51:31;;;;;;;48.13;29.65;;;0.20;1.00;;;;;;6236175;23;20216;-85
2022/12/03 00:53:59;;;;;;;55.15;32.88;;;0.30;1.00;;;;;;6233779;23;20744;-84
2022/12/03 00:56:26;;;;;;;48.90;33.00;;;0.30;1.00;;;;;;6233641;23;20263;-83
2022/12/03 00:58:54;;;;;;;50.58;29.88;;;0.20;1.00;;;;;;6232880;22;20218;-85
2022/12/03 01:01:29;;;;;;;52.78;33.08;;;0.20;1.00;;;;;;6232942;23;20203;-85
2022/12/03 01:03:56;;;;;;;52.72;31.77;;;0.30;1.00;;;;;;6233795;23;20683;-82
2022/12/03 01:06:25;;;;;;;58.28;34.50;;;0.30;1.00;;;;;;6238808;23;20213;-84
2022/12/03 01:08:54;;;;;;;53.30;32.70;;;0.30;1.00;;;;;;6235451;23;20206;-83
2022/12/03 01:14:25;;;;;;;50.53;33.72;;;0.40;1.00;;;;;;6111064;23;20250;-85
2022/12/03 01:16:53;;;;;;;50.22;30.98;;;0.40;1.00;;;;;;6132265;23;20222;-85
2022/12/03 01:19:26;;;;;;;55.70;35.45;;;0.40;1.00;;;;;;6232930;23;20220;-85
2022/12/03 01:21:54;;;;;;;62.08;38.30;;;0.60;1.00;;;;;;6233931;23;20211;-84
2022/12/03 01:24:26;;;;;;;63.78;40.42;;;0.50;1.00;;;;;;6230777;23;20224;-84
2022/12/03 01:26:54;;;;;;;64.53;41.30;;;0.40;1.00;;;;;;6232154;23;20224;-84
2022/12/03 01:29:30;;;;;;;63.75;40.55;;;0.30;1.00;;;;;;6231519;23;20212;-84
2022/12/03 01:32:17;;;;;;;70.50;43.30;;;0.40;1.00;;;;;;6232018;23;20241;-81
2022/12/03 01:34:48;;;;;;;64.72;41.53;;;0.40;1.00;;;;;;6233630;23;20233;-85
2022/12/03 01:37:16;;;;;;;72.20;43.50;;;0.50;1.00;;;;;;6227410;23;20205;-81
2022/12/03 01:39:57;;;;;;;61.83;38.15;;;0.40;1.00;;;;;;6227113;22;20220;-79
2022/12/03 01:42:28;;;;;;;64.30;38.10;;;0.40;1.00;;;;;;6231948;23;20212;-82
2022/12/03 01:45:03;;;;;;;57.35;34.55;;;0.40;1.00;;;;;;6232723;23;20210;-83
2022/12/03 01:47:34;;;;;;;58.15;34.53;;;0.40;1.00;;;;;;6229331;23;20247;-82
2022/12/03 01:50:07;;;;;;;59.20;35.80;;;0.40;1.00;;;;;;6232405;23;20224;-81
2022/12/03 01:52:37;;;;;;;52.30;35.40;;;0.40;1.00;;;;;;6233935;23;20212;-82
2022/12/03 01:55:11;;;;;;;52.97;35.13;;;0.40;1.00;;;;;;6229548;23;20225;-79
2022/12/03 01:57:45;;;;;;;51.53;33.10;;;0.40;1.00;;;;;;6229922;23;20303;-77
2022/12/03 02:00:27;;;;;;;;;;;;;;;;;;;;;
2022/12/03 02:03:02;;;;;;;48.47;32.58;;;0.40;1.00;;;;;;6231034;23;40777;-82
2022/12/03 02:05:32;;;;;;;50.35;32.67;;;0.30;1.00;;;;;;6229232;23;20212;-78
2022/12/03 02:08:04;;;;;;;53.63;31.90;;;0.30;1.00;;;;;;6225986;23;20225;-80
2022/12/03 02:10:34;;;;;;;54.47;34.17;;;0.20;1.00;;;;;;6229763;23;20977;-84
2022/12/03 02:13:07;;;;;;;49.20;33.03;;;0.10;1.00;;;;;;6228801;22;20211;-84
2022/12/03 02:15:34;;;;;;;52.17;32.75;;;0.10;1.00;;;;;;6237150;23;20209;-84
2022/12/03 02:18:08;;;;;;;51.67;31.48;;;0.10;1.00;;;;;;6212811;23;20255;-79
2022/12/03 02:20:49;;;;;;;52.78;33.05;;;0.00;1.00;;;;;;6220151;23;20215;-83
2022/12/03 02:23:26;;;;;;;56.95;34.38;;;0.10;1.00;;;;;;6234614;23;20240;-82
2022/12/03 02:25:54;;;;;;;52.80;33.85;;;0.10;1.00;;;;;;6233672;23;20213;-84
2022/12/03 02:28:25;;;;;;;47.55;30.92;;;0.00;1.00;;;;;;6235710;23;21142;-84
2022/12/03 02:30:52;;;;;;;52.95;33.28;;;0.00;1.00;;;;;;6230031;23;20237;-84
2022/12/03 02:33:24;;;;;;;50.55;32.90;;;0.00;1.00;;;;;;6228198;23;20219;-78
2022/12/03 02:35:51;;;;;;;54.58;32.00;;;0.10;1.00;;;;;;6229109;23;20214;-77
2022/12/03 02:38:24;;;;;;;53.03;31.40;;;0.00;1.00;;;;;;6225454;23;20230;-80
2022/12/03 02:40:58;;;;;;;53.35;33.80;;;0.10;1.00;;;;;;6226764;23;20624;-79
2022/12/03 02:43:25;;;;;;;52.55;31.83;;;0.10;1.00;;;;;;6191783;23;20212;-80
2022/12/03 02:45:54;;;;;;;64.82;34.33;;;0.10;1.00;;;;;;6230931;23;20220;-82
2022/12/03 02:48:29;;;;;;;51.30;32.33;;;0.10;1.00;;;;;;6233056;23;20194;-85
2022/12/03 02:51:08;;;;;;;49.67;31.92;;;0.10;1.00;;;;;;6229102;23;20213;-79
2022/12/03 02:53:47;;;;;;;49.55;32.38;;;0.10;1.00;;;;;;6233163;23;20217;-84
2022/12/03 02:56:18;;;;;;;56.45;32.65;;;0.10;1.00;;;;;;6236520;23;20241;-83
2022/12/03 02:58:48;;;;;;;52.50;32.55;;;0.10;1.00;;;;;;6232085;23;20244;-80
2022/12/03 03:01:16;;;;;;;55.95;33.47;;;0.10;1.00;;;;;;6227902;23;20227;-85
2022/12/03 03:03:47;;;;;;;56.25;32.97;;;0.20;1.00;;;;;;6237832;23;20218;-85
2022/12/03 03:06:14;;;;;;;55.88;32.78;;;0.20;1.00;;;;;;6234045;23;20216;-85
2022/12/03 03:08:48;;;;;;;49.28;31.70;;;0.30;1.00;;;;;;6234963;23;21017;-84
2022/12/03 03:11:16;;;;;;;48.15;32.05;;;0.30;1.00;;;;;;6231710;23;20922;-85
2022/12/03 03:13:46;;;;;;;52.20;33.67;;;0.30;1.00;;;;;;6230537;23;20215;-83
2022/12/03 03:16:13;;;;;;;51.15;32.92;;;0.20;1.00;;;;;;6228913;23;20213;-83
2022/12/03 03:18:44;;;;;;;49.47;30.55;;;0.20;1.00;;;;;;6230726;23;20231;-82
2022/12/03 03:21:12;;;;;;;52.83;32.33;;;0.20;1.00;;;;;;6228452;23;20706;-82
2022/12/03 03:23:43;;;;;;;54.03;32.40;;;0.20;1.00;;;;;;6227658;22;21063;-80
2022/12/03 03:26:15;;;;;;;51.80;33.40;;;0.20;1.00;;;;;;6222635;23;20219;-79
2022/12/03 03:28:50;;;;;;;62.05;36.13;;;0.30;1.00;;;;;;6226458;23;20243;-79
2022/12/03 03:31:23;;;;;;;52.72;32.30;;;0.20;1.00;;;;;;6197147;23;20730;-79
2022/12/03 03:33:51;;;;;;;49.25;31.23;;;0.20;1.00;;;;;;6228456;23;20219;-79
2022/12/03 03:36:21;;;;;;;54.20;32.97;;;0.20;1.00;;;;;;6228974;22;20215;-79
2022/12/03 03:38:50;;;;;;;51.25;32.30;;;0.20;1.00;;;;;;6233652;23;20222;-83
2022/12/03 03:41:23;;;;;;;51.08;31.38;;;0.20;1.00;;;;;;6233368;23;20781;-79
2022/12/03 03:43:52;;;;;;;50.72;32.00;;;0.30;1.00;;;;;;6231612;23;20243;-79
2022/12/03 03:46:25;;;;;;;56.80;32.90;;;0.20;1.00;;;;;;6227646;23;20228;-81
2022/12/03 03:48:52;;;;;;;49.78;31.02;;;0.20;1.00;;;;;;6230797;23;20226;-82
2022/12/03 03:51:25;;;;;;;54.75;34.03;;;0.20;1.00;;;;;;6232218;22;20241;-85
2022/12/03 03:53:52;;;;;;;49.47;33.95;;;0.10;1.00;;;;;;6232726;22;21023;-78
2022/12/03 03:56:25;;;;;;;58.65;33.88;;;0.10;1.00;;;;;;6227165;23;20288;-80
2022/12/03 03:58:54;;;;;;;58.00;34.42;;;0.00;1.00;;;;;;6230141;23;20224;-80
2022/12/03 04:01:25;;;;;;;52.08;32.85;;;0.00;1.00;;;;;;6229417;23;20235;-79
2022/12/03 04:03:53;;;;;;;52.28;33.80;;;0.00;1.00;;;;;;6227831;23;20216;-77
2022/12/03 04:06:30;;;;;;;58.88;34.00;;;0.00;1.00;;;;;;6227680;23;20299;-79
2022/12/03 04:08:57;;;;;;;51.05;32.75;;;0.00;1.00;;;;;;6232865;23;20203;-85
2022/12/03 04:14:08;;;;;;;49.55;32.08;;;0.10;1.00;;;;;;6176909;23;20210;-78
2022/12/03 04:16:35;;;;;;;52.03;32.97;;;0.10;1.00;;;;;;6228893;23;20298;-82
2022/12/03 04:19:05;;;;;;;54.15;32.88;;;0.10;1.00;;;;;;6232224;23;20218;-82
2022/12/03 04:24:17;;;;;;;51.35;34.20;;;0.10;1.00;;;;;;6228012;23;20216;-79
2022/12/03 04:29:31;;;;;;;55.05;33.00;;;0.20;1.00;;;;;;6222026;23;20216;-82
2022/12/03 04:37:30;;;;;;;54.55;33.17;;;0.20;1.00;;;;;;6223123;23;20680;-78
2022/12/03 04:39:57;;;;;;;53.58;32.30;;;0.20;1.00;;;;;;6228383;23;20250;-80
2022/12/03 04:42:25;;;;;;;53.28;33.33;;;0.20;1.00;;;;;;6228160;23;20198;-80
2022/12/03 04:44:53;;;;;;;50.95;31.92;;;0.20;1.00;;;;;;6226752;22;20214;-79
2022/12/03 04:47:25;;;;;;;54.72;30.85;;;0.20;1.00;;;;;;6229120;23;20217;-80
2022/12/03 04:49:52;;;;;;;51.78;32.15;;;0.20;1.00;;;;;;6229471;23;20227;-77
2022/12/03 04:52:24;;;;;;;52.45;33.45;;;0.20;1.00;;;;;;6228687;23;20219;-78
2022/12/03 04:54:50;;;;;;;54.55;33.47;;;0.20;1.00;;;;;;6229232;23;20924;-76
2022/12/03 04:57:18;;;;;;;54.05;32.47;;;0.20;1.00;;;;;;6233509;23;20227;-85
2022/12/03 04:59:45;;;;;;;51.92;33.30;;;0.20;1.00;;;;;;6236720;23;20196;-84
2022/12/03 05:02:14;;;;;;;51.47;32.78;;;0.20;1.00;;;;;;6228574;23;20227;-83
2022/12/03 05:04:46;;;;;;;53.85;32.63;;;0.20;1.00;;;;;;6233468;22;20239;-84
2022/12/03 05:07:14;;;;;;;47.47;32.22;;;0.10;1.00;;;;;;6232708;23;20208;-84
2022/12/03 05:09:50;;;;;;;51.25;33.35;;;0.10;1.00;;;;;;6230999;23;20204;-77
2022/12/03 05:12:17;;;;;;;51.55;32.40;;;0.10;1.00;;;;;;6226022;23;20220;-80
2022/12/03 05:14:47;;;;;;;61.05;32.80;;;0.20;1.00;;;;;;6227312;23;20225;-81
2022/12/03 05:17:15;;;;;;;44.95;29.92;;;0.20;1.00;;;;;;6232597;23;20212;-85
2022/12/03 05:22:30;;;;;;;56.60;35.08;;;0.10;1.00;;;;;;6217818;23;20231;-82
2022/12/03 05:24:57;;;;;;;50.40;32.08;;;0.00;1.00;;;;;;6230709;23;20209;-78
2022/12/03 05:27:25;;;;;;;52.40;31.92;;;0.00;1.00;;;;;;6211955;22;20233;-79
2022/12/03 05:29:53;;;;;;;55.00;32.97;;;0.10;1.00;;;;;;6234810;23;20201;-82
2022/12/03 05:32:26;;;;;;;54.28;33.83;;;0.00;1.00;;;;;;6230834;23;20278;-82
2022/12/03 05:34:53;;;;;;;52.50;33.13;;;0.00;1.00;;;;;;6232672;22;20260;-84
2022/12/03 05:37:27;;;;;;;51.40;33.35;;;0.00;1.00;;;;;;6228939;23;20213;-84
2022/12/03 05:39:54;;;;;;;54.70;32.97;;;0.00;1.00;;;;;;6229756;23;20274;-85
2022/12/03 05:45:10;;;;;;;55.40;33.30;;;0.00;1.00;;;;;;6230301;22;20218;-81
2022/12/03 05:47:44;;;;;;;62.67;34.17;;;0.00;1.00;;;;;;6227655;23;20219;-83
2022/12/03 05:50:12;;;;;;;55.90;34.13;;;-0.10;1.00;;;;;;6233450;23;20464;-84
2022/12/03 05:52:39;;;;;;;56.88;33.25;;;-0.20;1.00;;;;;;6227716;23;20219;-80
2022/12/03 05:55:06;;;;;;;56.05;32.85;;;-0.20;1.00;;;;;;6218861;23;20243;-79
2022/12/03 05:57:33;;;;;;;56.47;34.70;;;-0.20;1.00;;;;;;6220699;23;20334;-79
2022/12/03 06:00:00;;;;;;;61.03;34.05;;;-0.20;1.00;;;;;;6220734;23;20227;-79
2022/12/03 06:02:27;;;;;;;51.70;32.65;;;-0.20;1.00;;;;;;6220080;23;20243;-79
2022/12/03 06:04:56;;;;;;;55.33;32.75;;;-0.10;1.00;;;;;;6220025;23;20219;-78
2022/12/03 06:07:23;;;;;;;59.63;36.42;;;-0.10;1.00;;;;;;6220457;23;20221;-78
2022/12/03 06:09:50;;;;;;;56.35;33.97;;;-0.10;1.00;;;;;;6219940;23;20236;-80
2022/12/03 06:12:16;;;;;;;60.22;32.78;;;-0.10;1.00;;;;;;6223352;23;20284;-78
2022/12/03 06:14:44;;;;;;;63.75;36.55;;;-0.20;1.00;;;;;;6223217;23;20271;-81
2022/12/03 06:17:11;;;;;;;55.45;33.88;;;-0.10;1.00;;;;;;6219855;23;20344;-78
2022/12/03 06:19:38;;;;;;;61.78;35.30;;;-0.20;1.00;;;;;;6220303;23;20225;-80
2022/12/03 06:22:06;;;;;;;58.95;34.92;;;-0.30;1.00;;;;;;6219557;23;20244;-77
2022/12/03 06:24:35;;;;;;;67.32;37.38;;;-0.30;1.00;;;;;;6227817;22;20917;-78
2022/12/03 06:27:05;;;;;;;58.47;35.53;;;-0.30;1.00;;;;;;6227542;23;20214;-80
2022/12/03 06:29:32;;;;;;;62.20;35.65;;;-0.20;1.00;;;;;;6229466;23;20220;-80
2022/12/03 06:32:04;;;;;;;64.63;37.58;;;-0.20;1.00;;;;;;6227153;23;20215;-80
2022/12/03 06:34:31;;;;;;;63.85;35.22;;;-0.30;1.00;;;;;;6227697;23;20264;-80
2022/12/03 06:37:04;;;;;;;58.35;35.08;;;-0.30;1.00;;;;;;6231336;23;20214;-86
2022/12/03 06:39:32;;;;;;;57.60;36.17;;;-0.30;1.00;;;;;;6231537;22;20278;-82
2022/12/03 06:42:04;;;;;;;59.20;35.05;;;-0.30;1.00;;;;;;6226867;23;20970;-78
2022/12/03 06:44:31;;;;;;;63.15;35.50;;;-0.30;1.00;;;;;;6234391;23;20228;-85
2022/12/03 06:47:02;;;;;;;61.38;35.90;;;-0.30;1.00;;;;;;6216924;23;20213;-78
2022/12/03 06:49:30;;;;;;;53.70;33.67;;;-0.30;1.00;;;;;;6223138;23;20227;-79
2022/12/03 06:51:57;;;;;;;64.75;37.00;;;-0.30;1.00;;;;;;6227962;23;20220;-80
2022/12/03 06:54:24;;;;;;;60.88;36.78;;;-0.20;1.00;;;;;;6229428;23;20222;-78
2022/12/03 06:57:00;;;;;;;59.03;37.20;;;-0.10;1.00;;;;;;6236511;23;20247;-83
2022/12/03 06:59:27;;;;;;;62.47;39.38;;;0.00;1.00;;;;;;6237392;23;20218;-85
2022/12/03 07:01:57;;;;;;;62.22;36.95;;;0.00;1.00;;;;;;6231181;23;20360;-80
2022/12/03 07:04:24;;;;;;;61.10;38.22;;;0.00;1.00;;;;;;6230262;23;20277;-84
2022/12/03 07:06:56;;;;;;;56.83;35.47;;;0.00;1.00;;;;;;6233350;22;20211;-84
2022/12/03 07:09:23;;;;;;;64.72;35.55;;;-0.10;1.00;;;;;;6234193;23;20231;-85
2022/12/03 07:11:54;;;;;;;58.47;34.60;;;-0.10;1.00;;;;;;6233310;23;20219;-83
2022/12/03 07:14:25;;;;;;;62.60;36.17;;;-0.10;1.00;;;;;;6223797;23;20221;-78
2022/12/03 07:16:52;;;;;;;61.75;37.13;;;-0.20;1.00;;;;;;6223330;23;20740;-78
2022/12/03 07:19:19;;;;;;;60.97;38.55;;;-0.20;1.00;;;;;;6221843;23;20232;-77
2022/12/03 07:21:46;;;;;;;59.55;36.65;;;-0.30;1.00;;;;;;6225151;22;20313;-78
2022/12/03 07:24:16;;;;;;;67.93;37.33;;;-0.30;1.00;;;;;;6224915;23;20198;-79
2022/12/03 07:26:46;;;;;;;59.70;37.10;;;-0.30;1.00;;;;;;6229370;23;20226;-77
2022/12/03 07:29:19;;;;;;;60.00;37.78;;;-0.20;1.00;;;;;;6229986;23;20233;-79
2022/12/03 07:31:47;;;;;;;66.45;38.50;;;-0.20;1.00;;;;;;6230070;23;20215;-78
2022/12/03 07:34:15;;;;;;;56.22;39.00;;;-0.20;1.00;;;;;;6230923;23;20216;-78
2022/12/03 07:36:42;;;;;;;64.72;37.58;;;-0.20;1.00;;;;;;6229965;23;20216;-82
2022/12/03 07:39:11;;;;;;;65.95;37.85;;;-0.30;1.00;;;;;;6230240;23;20224;-77
2022/12/03 07:41:39;;;;;;;64.03;38.05;;;-0.30;1.00;;;;;;6229745;23;20203;-79
2022/12/03 07:44:06;;;;;;;63.33;36.45;;;-0.30;1.00;;;;;;6227826;23;20935;-85
2022/12/03 07:46:36;;;;;;;61.25;37.42;;;-0.30;1.00;;;;;;6232006;23;20238;-79
2022/12/03 07:49:04;;;;;;;66.43;37.97;;;-0.30;1.00;;;;;;6224498;23;20238;-82
2022/12/03 07:51:38;;;;;;;64.78;39.05;;;-0.30;1.00;;;;;;6232182;23;20228;-81
2022/12/03 07:54:05;;;;;;;68.22;40.13;;;-0.30;1.00;;;;;;6228262;23;20221;-78
2022/12/03 07:56:39;;;;;;;58.15;36.80;;;-0.40;1.00;;;;;;6222580;23;20221;-79
2022/12/03 07:59:06;;;;;;;64.32;38.25;;;-0.40;1.00;;;;;;6223719;23;20244;-78
2022/12/03 08:01:37;;;;;;;65.50;39.13;;;-0.40;1.00;;;;;;6229296;22;20207;-87
2022/12/03 08:04:06;;;;;;;65.75;39.30;;;-0.40;1.00;;;;;;6232428;23;20212;-86
2022/12/03 08:06:36;;;;;;;66.20;36.15;;;-0.40;1.00;;;;;;6231348;23;20227;-79
2022/12/03 08:09:05;;;;;;;61.88;38.50;;;-0.40;1.00;;;;;;6225826;23;20243;-77
2022/12/03 08:11:36;;;;;;;58.45;35.88;;;-0.40;1.00;;;;;;6230688;23;20216;-83
2022/12/03 08:14:15;;;;;;;62.78;36.17;;;-0.40;1.00;;;;;;6226348;23;20245;-86
2022/12/03 08:16:43;;;;;;;66.03;37.00;;;-0.30;1.00;;;;;;6226938;23;20223;-77
2022/12/03 08:19:17;;;;;;;61.38;36.75;;;-0.40;1.00;;;;;;6224307;23;20235;-79
2022/12/03 08:21:45;;;;;;;64.53;38.63;;;-0.30;1.00;;;;;;6224968;23;20572;-81
2022/12/03 08:24:19;;;;;;;68.43;37.67;;;-0.30;1.00;;;;;;6225246;23;20201;-82
2022/12/03 08:26:47;;;;;;;64.55;38.00;;;-0.30;1.00;;;;;;6233290;23;20210;-78
2022/12/03 08:29:19;;;;;;;68.55;39.05;;;-0.30;1.00;;;;;;6232201;23;20218;-81
2022/12/03 08:31:50;;;;;;;63.40;36.50;;;-0.30;1.00;;;;;;6233703;23;20231;-81
2022/12/03 08:34:23;;;;;;;63.22;37.13;;;-0.30;1.00;;;;;;6236095;23;20218;-77
2022/12/03 08:36:58;;;;;;;58.67;35.67;;;-0.20;1.00;;;;;;6235779;23;20996;-82
2022/12/03 08:39:40;;;;;;;67.82;39.10;;;-0.20;1.00;;;;;;6226387;22;20223;-79
2022/12/03 08:45:41;;;;;;;59.58;34.80;;;-0.20;1.00;;;;;;6232620;23;20237;-87
2022/12/03 08:48:40;;;;;;;64.97;36.38;;;-0.10;1.00;;;;;;6232327;23;20902;-77
2022/12/03 08:51:22;;;;;;;62.30;34.40;;;-0.10;1.00;;;;;;6228334;22;20266;-82
2022/12/03 08:53:54;;;;;;;60.55;35.60;;;-0.10;1.00;;;;;;6228702;23;20213;-80
2022/12/03 08:56:26;;;;;;;59.85;36.85;;;-0.10;1.00;;;;;;6229840;23;20292;-83
2022/12/03 08:58:59;;;;;;;71.70;38.45;;;-0.10;1.00;;;;;;6224960;23;20211;-76
2022/12/03 09:01:41;;;;;;;66.82;38.75;;;0.00;1.00;;;;;;6229806;23;20642;-85
2022/12/03 09:04:34;;;;;;;65.68;36.53;;;0.10;1.00;;;;;;6207037;23;20219;-78
2022/12/03 09:07:03;;;;;;;66.05;38.30;;;0.20;1.00;;;;;;6226332;23;20902;-77
2022/12/03 09:09:35;;;;;;;64.43;38.88;;;0.20;1.00;;;;;;6228809;23;20215;-81
2022/12/03 09:12:04;;;;;;;64.53;36.75;;;0.20;1.00;;;;;;6228121;23;20270;-84
2022/12/03 09:14:35;;;;;;;61.67;36.15;;;0.20;1.00;;;;;;6219772;23;20270;-84
2022/12/03 09:17:03;;;;;;;62.30;36.08;;;0.20;1.00;;;;;;6232645;23;20228;-82
2022/12/03 09:19:34;;;;;;;67.25;37.55;;;0.30;1.00;;;;;;6232445;23;20330;-83
2022/12/03 09:22:03;;;;;;;60.47;36.22;;;0.40;1.00;;;;;;6229992;23;20215;-78
2022/12/03 09:24:39;;;;;;;66.78;36.38;;;0.50;1.00;;;;;;6229368;23;20224;-84
2022/12/03 09:27:06;;;;;;;69.70;36.25;;;0.50;1.00;;;;;;6234661;23;20216;-84
2022/12/03 09:29:37;;;;;;;56.78;35.47;;;0.60;1.00;;;;;;6236206;23;20215;-84
2022/12/03 09:32:08;;;;;;;64.07;37.97;;;0.70;1.00;;;;;;6233740;22;20215;-83
2022/12/03 09:34:38;;;;;;;70.32;37.17;;;0.80;1.00;;;;;;6229504;23;20264;-78
2022/12/03 09:37:07;;;;;;;63.08;35.47;;;0.70;1.00;;;;;;6227363;23;20691;-76
2022/12/03 09:39:36;;;;;;;63.47;36.58;;;0.80;1.00;;;;;;6229193;23;20210;-77
2022/12/03 09:42:03;;;;;;;61.85;37.08;;;0.90;1.00;;;;;;6230215;23;20376;-84
2022/12/03 09:44:36;;;;;;;60.30;35.25;;;0.80;1.00;;;;;;6229252;23;20980;-76
2022/12/03 09:47:05;;;;;;;72.03;37.63;;;0.80;1.00;;;;;;6227792;23;20212;-77
2022/12/03 09:49:37;;;;;;;65.22;38.38;;;0.80;1.00;;;;;;6227802;23;20213;-77
2022/12/03 09:52:05;;;;;;;59.33;35.65;;;0.70;1.00;;;;;;6224343;23;20235;-76
2022/12/03 09:54:36;;;;;;;59.63;35.90;;;0.70;1.00;;;;;;6225271;23;20216;-76
2022/12/03 09:57:04;;;;;;;57.28;35.80;;;0.70;1.00;;;;;;6225615;23;20955;-76
2022/12/03 09:59:36;;;;;;;62.25;36.53;;;0.60;1.00;;;;;;6211015;23;20224;-82
2022/12/03 10:02:08;;;;;;;63.20;39.25;;;0.60;1.00;;;;;;6198747;23;20222;-83
2022/12/03 10:04:38;;;;;;;67.45;37.90;;;0.50;1.00;;;;;;6229262;23;20244;-81
2022/12/03 10:07:05;;;;;;;61.75;36.95;;;0.50;1.00;;;;;;6229077;23;20277;-82
2022/12/03 10:09:40;;;;;;;62.42;37.42;;;0.50;1.00;;;;;;6233509;23;20219;-81
2022/12/03 10:12:15;;;;;;;65.30;38.10;;;0.50;1.00;;;;;;6232200;23;20269;-81
2022/12/03 10:14:43;;;;;;;64.70;37.20;;;0.50;1.00;;;;;;6231418;23;20209;-80
2022/12/03 10:17:15;;;;;;;60.58;34.80;;;0.40;1.00;;;;;;6231662;23;20271;-82
2022/12/03 10:19:43;;;;;;;58.17;35.72;;;0.40;1.00;;;;;;6231035;23;20209;-79
2022/12/03 10:22:16;;;;;;;63.25;36.42;;;0.40;1.00;;;;;;6215239;23;20238;-81
2022/12/03 10:24:45;;;;;;;63.30;36.53;;;0.40;1.00;;;;;;6232465;23;20232;-83
2022/12/03 10:27:24;;;;;;;67.88;37.85;;;0.40;1.00;;;;;;6233291;23;20217;-84
2022/12/03 10:29:58;;;;;;;65.25;34.97;;;0.40;1.00;;;;;;6237232;23;20224;-80
2022/12/03 10:32:27;;;;;;;67.28;37.17;;;0.40;1.00;;;;;;6234308;23;20286;-83
2022/12/03 10:35:09;;;;;;;74.68;37.78;;;0.40;1.00;;;;;;6232607;23;20212;-82
2022/12/03 10:37:40;;;;;;;69.05;40.75;;;0.40;1.00;;;;;;6231869;23;20214;-83
2022/12/03 10:40:25;;;;;;;63.78;37.28;;;0.30;1.00;;;;;;6236832;23;20218;-84
2022/12/03 10:43:20;;;;;;;66.00;37.55;;;0.40;1.00;;;;;;6244051;22;20208;-82
2022/12/03 10:45:55;;;;;;;69.75;38.45;;;0.40;1.00;;;;;;6212611;23;20213;-83
2022/12/03 10:48:26;;;;;;;69.72;36.58;;;0.40;1.00;;;;;;6236489;23;20933;-82
2022/12/03 10:51:02;;;;;;;60.85;35.30;;;0.40;1.00;;;;;;6226572;23;20300;-79
2022/12/03 10:53:36;;;;;;;64.55;36.83;;;0.50;1.00;;;;;;6231849;23;20911;-83
2022/12/03 10:56:08;;;;;;;60.42;35.55;;;0.50;1.00;;;;;;6222779;23;20198;-81
2022/12/03 10:58:39;;;;;;;64.50;37.22;;;0.50;1.00;;;;;;6231767;23;20215;-76
2022/12/03 11:01:21;;;;;;;69.18;35.78;;;0.40;1.00;;;;;;6231151;23;20219;-83
2022/12/03 11:03:49;;;;;;;67.65;35.70;;;0.40;1.00;;;;;;6208273;23;20217;-83
2022/12/03 11:06:18;;;;;;;69.60;35.55;;;0.50;1.00;;;;;;6230284;23;20213;-85
2022/12/03 11:08:52;;;;;;;73.03;35.35;;;0.50;1.00;;;;;;6234563;23;20242;-84
2022/12/03 11:11:25;;;;;;;63.08;34.55;;;0.50;1.00;;;;;;6234307;23;20330;-85
2022/12/03 11:13:54;;;;;;;68.30;36.08;;;0.60;1.00;;;;;;6231033;23;20947;-83
2022/12/03 11:17:10;;;;;;;64.45;35.88;;;0.60;1.00;;;;;;6230563;23;20202;-82
2022/12/03 11:19:48;;;;;;;61.65;35.80;;;0.60;1.00;;;;;;6220993;23;20215;-81
2022/12/03 11:22:43;;;;;;;62.80;35.58;;;0.60;1.00;;;;;;6181284;23;20227;-85
2022/12/03 11:25:56;;;;;;;54.60;32.88;;;0.60;1.00;;;;;;6188967;23;20202;-77
2022/12/03 11:28:56;;;;;;;65.18;34.05;;;0.60;1.00;;;;;;6221011;22;21556;-76
2022/12/03 11:31:42;;;;;;;64.25;34.30;;;0.60;1.00;;;;;;6201839;23;20219;-82
2022/12/03 11:34:50;;;;;;;59.35;33.42;;;0.60;1.00;;;;;;6209690;23;20269;-83
2022/12/03 11:37:25;;;;;;;57.45;33.25;;;0.60;1.00;;;;;;6196412;23;20221;-84
2022/12/03 11:40:25;;;;;;;60.47;33.80;;;0.70;1.00;;;;;;6206895;22;20270;-85
2022/12/03 11:42:53;;;;;;;71.05;37.45;;;0.70;1.00;;;;;;6229180;23;20897;-82
2022/12/03 11:45:34;;;;;;;63.75;36.13;;;0.70;1.00;;;;;;6207603;23;20279;-78
2022/12/03 11:48:12;;;;;;;63.25;33.38;;;0.70;1.00;;;;;;6199842;23;20216;-78
2022/12/03 11:50:43;;;;;;;58.65;32.33;;;0.80;1.00;;;;;;6208418;23;20311;-84
2022/12/03 11:53:22;;;;;;;59.83;34.03;;;0.80;1.00;;;;;;6212538;23;20229;-79
2022/12/03 11:56:04;;;;;;;63.78;35.97;;;0.90;1.00;;;;;;6199555;23;20254;-77
2022/12/03 11:58:32;;;;;;;55.40;31.75;;;0.90;1.00;;;;;;6169615;23;20214;-77
2022/12/03 12:01:14;;;;;;;64.32;32.40;;;0.80;1.00;;;;;;6220592;23;20251;-77
2022/12/03 12:03:45;;;;;;;58.40;33.70;;;0.70;1.00;;;;;;6228449;23;20257;-76
2022/12/03 12:06:21;;;;;;;59.72;32.72;;;0.80;1.00;;;;;;6204024;23;20297;-77
2022/12/03 12:09:02;;;;;;;61.50;32.25;;;0.80;1.00;;;;;;6223986;23;20216;-85
2022/12/03 12:11:32;;;;;;;60.42;32.28;;;0.70;1.00;;;;;;6215864;23;20223;-76
2022/12/03 12:14:02;;;;;;;58.90;34.50;;;0.70;1.00;;;;;;6210697;23;20239;-78
2022/12/03 12:16:54;;;;;;;58.55;33.95;;;0.70;1.00;;;;;;6225726;23;20273;-84
2022/12/03 12:19:36;;;;;;;65.05;32.30;;;0.70;1.00;;;;;;6213803;22;20225;-84
2022/12/03 12:22:14;;;;;;;63.65;33.78;;;0.70;1.00;;;;;;6230979;22;20223;-82
2022/12/03 12:24:51;;;;;;;63.92;36.13;;;0.60;1.00;;;;;;6230690;23;20216;-78
2022/12/03 12:27:23;;;;;;;64.00;34.75;;;0.60;1.00;;;;;;6233738;23;20214;-84
2022/12/03 12:32:49;;;;;;;60.38;33.88;;;0.70;1.00;;;;;;6224013;23;20216;-76
2022/12/03 12:43:28;;;;;;;63.05;34.92;;;0.70;1.00;;;;;;6221821;22;20213;-77
2022/12/03 12:46:01;;;;;;;65.78;34.40;;;0.60;1.00;;;;;;6237340;23;20264;-76
2022/12/03 12:48:45;;;;;;;62.53;33.85;;;0.70;1.00;;;;;;6233910;23;20312;-88
2022/12/03 12:51:14;;;;;;;67.88;34.70;;;0.70;1.00;;;;;;6225924;22;20921;-77
2022/12/03 12:53:45;;;;;;;61.53;32.88;;;0.70;1.00;;;;;;6228758;23;20207;-81
2022/12/03 12:56:25;;;;;;;61.05;33.58;;;0.70;1.00;;;;;;6229142;23;20215;-78
2022/12/03 12:58:52;;;;;;;61.28;32.05;;;0.70;1.00;;;;;;6221304;23;20226;-79
2022/12/03 13:01:26;;;;;;;59.25;33.00;;;0.70;1.00;;;;;;6227022;23;20220;-81
2022/12/03 13:04:13;;;;;;;63.03;34.28;;;0.70;1.00;;;;;;6107068;23;20408;-82
2022/12/03 13:06:49;;;;;;;62.50;34.85;;;0.70;1.00;;;;;;6209004;23;20207;-77
2022/12/03 13:09:25;;;;;;;65.50;34.40;;;0.70;1.00;;;;;;6227751;23;20268;-85
2022/12/03 13:11:54;;;;;;;64.28;34.88;;;0.70;1.00;;;;;;6215069;23;20227;-80
2022/12/03 13:14:30;;;;;;;56.55;33.55;;;0.70;1.00;;;;;;6228380;23;20221;-79
2022/12/03 13:17:04;;;;;;;68.22;38.90;;;0.70;1.00;;;;;;6227030;23;20213;-78
2022/12/03 13:19:34;;;;;;;62.00;34.72;;;0.60;1.00;;;;;;6213623;23;20389;-78
2022/12/03 13:22:12;;;;;;;59.33;33.40;;;0.70;1.00;;;;;;6224962;23;20208;-77
2022/12/03 13:24:46;;;;;;;61.38;33.30;;;0.50;1.00;;;;;;6227913;23;20212;-80
2022/12/03 13:27:30;;;;;;;68.93;37.53;;;0.60;1.00;;;;;;6225634;23;20675;-82
2022/12/03 13:30:09;;;;;;;60.88;34.55;;;0.60;1.00;;;;;;6226195;23;20253;-80
2022/12/03 13:32:44;;;;;;;66.90;34.78;;;0.70;1.00;;;;;;6229228;23;20234;-76
2022/12/03 13:35:24;;;;;;;67.95;33.13;;;0.70;1.00;;;;;;6228853;23;20215;-82
2022/12/03 13:37:51;;;;;;;60.22;33.33;;;0.60;1.00;;;;;;6234901;23;20293;-78
2022/12/03 13:40:26;;;;;;;58.80;34.47;;;0.60;1.00;;;;;;6226822;23;20212;-82
2022/12/03 13:42:55;;;;;;;62.05;35.60;;;0.60;1.00;;;;;;6233610;23;20219;-77
2022/12/03 13:45:35;;;;;;;59.47;34.13;;;0.70;1.00;;;;;;6228267;23;20216;-81
2022/12/03 13:48:26;;;;;;;65.22;33.35;;;0.70;1.00;;;;;;6232362;22;20211;-80